createdAt,value
2023-02-16T00:01:37.105Z,102107.13
2023-02-16T00:06:39.235Z,102134.44
2023-02-16T00:12:00.929Z,102155.00
2023-02-16T00:17:03.948Z,102146.63
2023-02-16T00:22:07.775Z,102109.91
2023-02-16T00:27:16.102Z,102150.19
2023-02-16T00:32:18.368Z,102094.66
2023-02-16T00:37:20.654Z,102124.06
2023-02-16T00:42:26.446Z,102101.56
2023-02-16T00:47:28.625Z,102126.25
2023-02-16T00:52:38.108Z,102133.59
2023-02-16T00:57:54.524Z,102097.22
2023-02-16T01:03:05.384Z,102127.88
2023-02-16T01:08:33.500Z,102110.19
2023-02-16T01:13:49.506Z,102121.78
2023-02-16T01:18:52.747Z,102113.81
2023-02-16T01:23:55.132Z,102119.72
2023-02-16T01:28:57.313Z,102081.69
2023-02-16T01:33:59.548Z,102104.41
2023-02-16T01:39:02.478Z,102091.38
2023-02-16T01:44:19.312Z,102039.81
2023-02-16T01:49:22.355Z,102067.06
2023-02-16T01:54:43.993Z,102084.28
2023-02-16T01:59:46.068Z,102084.59
2023-02-16T02:05:12.335Z,102087.66
2023-02-16T02:10:27.386Z,102096.38
2023-02-16T02:15:32.990Z,102095.94
2023-02-16T02:21:16.391Z,102091.34
2023-02-16T02:26:40.116Z,102085.59
2023-02-16T02:32:00.471Z,102083.69
2023-02-16T02:37:29.707Z,102080.41
2023-02-16T02:43:11.224Z,102072.44
2023-02-16T02:48:13.460Z,102053.75
2023-02-16T02:53:16.844Z,102045.63
2023-02-16T02:58:39.046Z,102021.22
2023-02-16T03:03:48.489Z,102074.03
2023-02-16T03:09:12.290Z,102072.41
2023-02-16T03:14:19.257Z,102089.59
2023-02-16T03:19:39.964Z,102065.03
2023-02-16T03:25:01.136Z,102088.19
2023-02-16T03:30:05.845Z,102075.69
2023-02-16T03:35:08.977Z,102088.09
2023-02-16T03:40:30.384Z,102062.78
2023-02-16T03:45:37.396Z,102090.31
2023-02-16T03:50:39.582Z,102081.97
2023-02-16T03:55:47.634Z,102085.88
2023-02-16T04:00:50.785Z,102055.47
2023-02-16T04:05:53.190Z,102080.28
2023-02-16T04:10:57.695Z,102087.38
2023-02-16T04:15:59.859Z,102075.06
2023-02-16T04:21:02.517Z,102094.28
2023-02-16T04:26:05.241Z,102025.69
2023-02-16T04:31:07.814Z,102043.16
2023-02-16T04:36:10.711Z,102055.53
2023-02-16T04:41:12.907Z,102090.00
2023-02-16T04:46:15.130Z,102085.13
2023-02-16T04:51:17.683Z,102098.78
2023-02-16T04:56:20.015Z,102120.50
2023-02-16T05:01:24.570Z,102024.94
2023-02-16T05:06:26.998Z,102096.47
2023-02-16T05:11:50.435Z,102054.34
2023-02-16T05:16:52.971Z,102085.13
2023-02-16T05:21:55.258Z,102121.38
2023-02-16T05:26:57.507Z,102022.69
2023-02-16T05:32:01.468Z,102023.13
2023-02-16T05:37:05.985Z,102111.91
2023-02-16T05:42:08.502Z,102099.72
2023-02-16T05:47:11.695Z,102040.81
2023-02-16T05:52:13.960Z,102027.84
2023-02-16T05:57:16.278Z,102120.81
2023-02-16T06:02:18.585Z,102061.09
2023-02-16T06:07:20.768Z,102023.50
2023-02-16T06:12:22.995Z,102089.72
2023-02-16T06:17:25.447Z,102108.88
2023-02-16T06:22:27.772Z,102032.78
2023-02-16T06:27:30.122Z,102038.03
2023-02-16T06:32:33.844Z,102042.28
2023-02-16T06:37:36.413Z,102136.34
2023-02-16T06:42:38.802Z,102056.66
2023-02-16T06:47:40.970Z,102041.59
2023-02-16T06:52:43.248Z,102148.94
2023-02-16T06:57:45.652Z,102053.75
2023-02-16T07:02:48.006Z,102143.28
2023-02-16T07:07:50.580Z,102120.22
2023-02-16T07:12:52.698Z,102129.88
2023-02-16T07:17:55.053Z,102132.09
2023-02-16T07:22:57.333Z,102163.44
2023-02-16T07:27:59.862Z,102009.63
2023-02-16T07:33:02.174Z,102122.63
2023-02-16T07:38:05.681Z,102103.59
2023-02-16T07:43:08.356Z,102138.19
2023-02-16T07:48:10.533Z,102151.81
2023-02-16T07:53:13.436Z,102143.19
2023-02-16T07:58:27.698Z,102146.81
2023-02-16T08:03:29.991Z,102157.25
2023-02-16T08:08:32.842Z,102115.06
2023-02-16T08:13:35.174Z,102102.53
2023-02-16T08:18:38.626Z,102127.13
2023-02-16T08:23:49.919Z,102092.94
2023-02-16T08:28:53.055Z,102090.44
2023-02-16T08:33:56.485Z,102128.03
2023-02-16T08:39:01.184Z,102137.59
2023-02-16T08:44:05.168Z,102128.06
2023-02-16T08:49:08.737Z,102152.25
2023-02-16T08:54:19.976Z,102116.47
2023-02-16T08:59:23.731Z,102148.44
2023-02-16T09:04:29.436Z,102144.47
2023-02-16T09:09:31.793Z,102139.69
2023-02-16T09:14:34.285Z,102144.03
2023-02-16T09:19:36.404Z,102103.91
2023-02-16T09:24:38.643Z,102063.41
2023-02-16T09:29:40.807Z,102128.59
2023-02-16T09:34:45.013Z,102120.97
2023-02-16T09:39:47.667Z,102106.88
2023-02-16T09:45:14.226Z,102124.72
2023-02-16T09:50:50.327Z,102121.56
2023-02-16T09:56:03.598Z,102125.81
2023-02-16T10:01:45.383Z,102115.06
2023-02-16T10:07:10.412Z,102107.00
2023-02-16T10:12:19.757Z,102086.94
2023-02-16T10:17:38.079Z,102104.06
2023-02-16T10:22:42.206Z,102098.84
2023-02-16T10:27:48.138Z,102078.34
2023-02-16T10:33:00.044Z,102090.94
2023-02-16T10:38:09.042Z,102093.34
2023-02-16T10:43:18.369Z,102042.63
2023-02-16T10:48:23.122Z,102053.75
2023-02-16T10:53:37.784Z,102065.00
2023-02-16T10:58:42.337Z,102031.69
2023-02-16T11:03:50.656Z,102030.56
2023-02-16T11:09:00.201Z,102027.50
2023-02-16T11:14:30.819Z,101996.06
2023-02-16T11:19:34.352Z,102000.53
2023-02-16T11:24:39.572Z,102012.25
2023-02-16T11:29:42.208Z,101992.69
2023-02-16T11:34:51.752Z,101985.47
2023-02-16T11:39:59.554Z,101981.25
2023-02-16T11:45:04.328Z,101984.66
2023-02-16T11:50:24.309Z,101983.31
2023-02-16T11:55:36.402Z,101950.59
2023-02-16T12:00:39.077Z,101949.78
2023-02-16T12:06:02.004Z,101959.53
2023-02-16T12:11:16.396Z,101948.84
2023-02-16T12:16:52.573Z,101936.38
2023-02-16T12:22:04.351Z,101922.91
2023-02-16T12:27:27.561Z,101924.47
2023-02-16T12:32:32.671Z,101924.06
2023-02-16T12:38:04.484Z,101897.88
2023-02-16T12:43:38.910Z,101912.97
2023-02-16T12:48:59.841Z,101899.25
2023-02-16T12:54:15.580Z,101877.97
2023-02-16T12:59:21.020Z,101885.06
2023-02-16T13:04:40.834Z,101884.25
2023-02-16T13:10:01.854Z,101877.63
2023-02-16T13:15:13.532Z,101867.09
2023-02-16T13:20:20.136Z,101876.88
2023-02-16T13:25:50.023Z,101868.72
2023-02-16T13:30:59.917Z,101859.09
2023-02-16T13:36:13.971Z,101815.81
2023-02-16T13:41:43.340Z,101859.41
2023-02-16T13:46:50.565Z,101859.84
2023-02-16T13:51:52.783Z,101843.41
2023-02-16T13:56:55.083Z,101855.31
2023-02-16T14:01:58.189Z,101856.09
2023-02-16T14:07:08.767Z,101851.66
2023-02-16T14:12:16.949Z,101845.97
2023-02-16T14:17:24.524Z,101843.97
2023-02-16T14:22:39.650Z,101848.63
2023-02-16T14:27:46.492Z,101830.84
2023-02-16T14:32:59.044Z,101847.00
2023-02-16T14:38:08.391Z,101816.69
2023-02-16T14:43:24.664Z,101843.69
2023-02-16T14:48:54.716Z,101826.00
2023-02-16T14:54:21.568Z,101847.31
2023-02-16T14:59:46.438Z,101833.16
2023-02-16T15:04:48.667Z,101717.09
2023-02-16T15:09:57.696Z,101817.03
2023-02-16T15:15:10.410Z,101841.53
2023-02-16T15:20:22.214Z,101848.16
2023-02-16T15:25:33.053Z,101827.41
2023-02-16T15:30:47.561Z,101830.47
2023-02-16T15:36:03.248Z,101843.31
2023-02-16T15:41:08.910Z,101846.50
2023-02-16T15:46:35.872Z,101853.56
2023-02-16T15:51:38.716Z,101782.06
2023-02-16T15:56:46.402Z,101729.25
2023-02-16T16:01:49.147Z,101784.88
2023-02-16T16:06:52.648Z,101846.75
2023-02-16T16:11:57.986Z,101849.50
2023-02-16T16:17:00.943Z,101833.25
2023-02-16T16:22:05.126Z,101848.34
2023-02-16T16:27:10.441Z,101847.28
2023-02-16T16:32:25.373Z,101835.75
2023-02-16T16:37:34.301Z,101825.16
2023-02-16T16:42:39.616Z,101855.97
2023-02-16T16:47:51.155Z,101781.53
2023-02-16T16:52:53.561Z,101845.66
2023-02-16T16:58:08.491Z,101777.47
2023-02-16T17:03:15.652Z,101862.78
2023-02-16T17:08:17.904Z,101903.03
2023-02-16T17:13:21.546Z,101843.03
2023-02-16T17:18:23.953Z,101828.16
2023-02-16T17:23:27.017Z,101814.88
2023-02-16T17:28:30.252Z,101822.25
2023-02-16T17:33:32.563Z,101811.53
2023-02-16T17:38:35.154Z,101800.38
2023-02-16T17:43:37.561Z,101856.47
2023-02-16T17:48:40.095Z,101860.66
2023-02-16T17:53:42.588Z,101892.22
2023-02-16T17:58:44.869Z,101849.16
2023-02-16T18:03:47.416Z,101881.84
2023-02-16T18:08:49.778Z,101818.38
2023-02-16T18:13:52.446Z,101881.88
2023-02-16T18:18:55.568Z,101873.16
2023-02-16T18:23:57.816Z,101758.72
2023-02-16T18:29:00.912Z,101827.97
2023-02-16T18:34:03.134Z,101918.69
2023-02-16T18:39:06.783Z,101930.63
2023-02-16T18:44:09.133Z,101897.13
2023-02-16T18:49:11.467Z,101910.63
2023-02-16T18:54:13.746Z,101888.19
2023-02-16T18:59:16.059Z,101857.56
2023-02-16T19:04:18.287Z,101878.78
2023-02-16T19:09:21.042Z,101935.31
2023-02-16T19:14:23.523Z,101902.16
2023-02-16T19:19:25.736Z,101898.00
2023-02-16T19:24:27.998Z,101929.47
2023-02-16T19:29:30.187Z,101900.56
2023-02-16T19:34:33.599Z,101883.03
2023-02-16T19:39:37.416Z,101894.28
2023-02-16T19:44:40.659Z,101845.22
2023-02-16T19:49:43.108Z,101924.13
2023-02-16T19:54:45.336Z,101937.78
2023-02-16T19:59:47.584Z,101917.38
2023-02-16T20:04:49.812Z,101935.38
2023-02-16T20:09:51.940Z,101929.31
2023-02-16T20:14:54.156Z,101909.75
2023-02-16T20:19:56.362Z,101891.06
2023-02-16T20:24:58.580Z,101927.53
2023-02-16T20:30:03.434Z,101950.94
2023-02-16T20:35:07.749Z,101903.38
2023-02-16T20:40:10.435Z,101943.19
2023-02-16T20:45:16.797Z,101881.16
2023-02-16T20:50:19.209Z,101913.16
2023-02-16T20:55:21.674Z,101910.06
2023-02-16T21:00:25.189Z,101916.66
2023-02-16T21:05:27.594Z,101913.59
2023-02-16T21:10:29.776Z,101934.03
2023-02-16T21:15:32.058Z,101935.00
2023-02-16T21:20:34.268Z,101921.00
2023-02-16T21:25:36.870Z,101936.63
2023-02-16T21:30:39.487Z,101931.78
2023-02-16T21:35:42.079Z,101937.53
2023-02-16T21:41:02.672Z,101926.56
2023-02-16T21:46:05.005Z,101956.72
2023-02-16T21:51:07.648Z,101960.72
2023-02-16T21:56:24.527Z,101927.75
2023-02-16T22:01:33.262Z,101935.81
2023-02-16T22:06:40.263Z,101946.81
2023-02-16T22:11:42.636Z,101927.38
2023-02-16T22:16:47.668Z,101916.94
2023-02-16T22:21:51.636Z,101931.41
2023-02-16T22:26:53.889Z,101823.81
2023-02-16T22:31:56.195Z,101892.50
2023-02-16T22:36:58.399Z,101905.59
2023-02-16T22:42:00.643Z,101902.50
2023-02-16T22:47:02.883Z,101901.16
2023-02-16T22:52:05.214Z,101905.81
2023-02-16T22:57:07.567Z,101896.28
2023-02-16T23:02:09.699Z,101892.31
2023-02-16T23:07:11.881Z,101884.53
2023-02-16T23:12:14.144Z,101884.75
2023-02-16T23:17:16.333Z,101872.50
2023-02-16T23:22:18.573Z,101872.75
2023-02-16T23:27:20.722Z,101874.03
2023-02-16T23:32:22.840Z,101881.81
2023-02-16T23:37:24.924Z,101870.16
2023-02-16T23:42:27.104Z,101886.09
2023-02-16T23:47:29.265Z,101854.44
2023-02-16T23:52:31.474Z,101888.59
2023-02-16T23:57:34.205Z,101901.94
